Time;durP1;ratioP1;P1;durP2;ratioP2;P2;SDS_P1;SDS_P2;PMS_P1;PMS_P2;Temp;Humidity;BMP_temperature;BMP_pressure;BME280_temperature;BME280_humidity;BME280_pressure;Samples;Min_cycle;Max_cycle;Signal;HPM_P1;HPM_P2
2022/10/14 00:05:22;;;;;;;12.20;8.80;;;;;;;19.51;42.24;101221.00;105517;1284;81849;31
2022/10/14 00:16:41;;;;;;;13.20;9.50;;;;;;;19.49;42.38;101214.19;105906;1283;73641;-90
2022/10/14 00:22:29;;;;;;;14.20;9.10;;;;;;;19.49;42.53;101208.46;105673;1283;71707;-90
2022/10/14 00:28:06;;;;;;;18.20;9.00;;;;;;;19.48;42.56;101197.83;105775;1283;69559;-91
2022/10/14 00:31:10;;;;;;;18.00;10.30;;;;;;;19.47;42.56;101200.22;105813;1284;73015;-90
2022/10/14 00:36:58;;;;;;;17.10;9.50;;;;;;;19.45;42.54;101194.71;105838;1283;72329;-91
2022/10/14 00:42:35;;;;;;;13.10;9.20;;;;;;;19.45;42.67;101183.33;105758;1283;69382;-91
2022/10/14 00:48:12;;;;;;;13.50;9.10;;;;;;;19.45;42.76;101183.02;105644;1283;81839;-91
2022/10/14 00:53:49;;;;;;;13.60;10.00;;;;;;;19.44;42.85;101181.02;105813;1283;69527;-91
2022/10/14 00:59:26;;;;;;;16.90;10.50;;;;;;;19.44;42.82;101180.50;105800;1283;73333;-89
2022/10/14 01:05:13;;;;;;;14.00;10.10;;;;;;;19.43;42.99;101175.70;105536;1284;72218;-88
2022/10/14 01:14:40;;;;;;;18.00;9.80;;;;;;;19.42;43.20;101175.31;105780;1284;73252;-90
2022/10/14 01:20:39;;;;;;;15.60;10.30;;;;;;;19.42;43.07;101177.31;105904;1283;71983;-91
2022/10/14 01:23:48;;;;;;;14.80;10.30;;;;;;;19.41;43.21;101179.27;105638;1284;69104;-91
2022/10/14 01:30:01;;;;;;;18.00;10.60;;;;;;;19.40;43.19;101177.06;105967;1284;73507;-89
2022/10/14 01:35:57;;;;;;;16.50;10.70;;;;;;;19.41;43.24;101178.10;105769;1283;72280;-90
2022/10/14 01:39:09;;;;;;;16.60;10.20;;;;;;;19.40;43.33;101174.11;105874;1283;69113;-90
2022/10/14 01:45:01;;;;;;;18.40;10.40;;;;;;;19.39;43.42;101172.05;105833;1284;73374;-90
2022/10/14 01:50:39;;;;;;;15.30;10.40;;;;;;;19.39;43.41;101171.66;105757;1283;71232;-90
2022/10/14 01:56:21;;;;;;;14.50;10.30;;;;;;;19.39;43.58;101169.61;106141;1283;69000;-90
2022/10/14 01:59:29;;;;;;;16.50;10.20;;;;;;;19.38;43.53;101170.81;105931;1284;73360;-91
2022/10/14 02:02:35;;;;;;;13.40;9.90;;;;;;;19.38;43.59;101166.12;105711;1283;81857;-91
2022/10/14 02:08:17;;;;;;;16.60;10.70;;;;;;;19.37;43.72;101162.84;105814;1283;69074;-91
2022/10/14 02:14:00;;;;;;;15.10;10.60;;;;;;;19.37;43.65;101169.67;105575;1283;73413;-89
2022/10/14 02:17:11;;;;;;;16.50;10.40;;;;;;;19.37;43.74;101171.14;105866;1283;81949;-91
2022/10/14 02:23:19;;;;;;;;;;;;;;;19.36;43.85;101170.89;105972;1283;69214;-89
2022/10/14 02:28:55;;;;;;;13.00;10.00;;;;;;;19.34;43.75;101177.55;105590;1283;73303;-91
2022/10/14 02:34:34;;;;;;;14.30;9.70;;;;;;;19.34;43.81;101178.91;105467;1283;72370;-91
2022/10/14 02:42:57;;;;;;;18.70;10.20;;;;;;;19.33;43.82;101180.48;105458;1283;73014;-91
2022/10/14 02:48:33;;;;;;;14.40;9.60;;;;;;;19.33;43.88;101180.73;105794;1283;72047;-90
2022/10/14 02:54:15;;;;;;;16.30;12.80;;;;;;;19.33;44.06;101176.95;105809;1283;68183;-90
2022/10/14 02:57:13;;;;;;;25.00;19.10;;;;;;;19.33;43.98;101178.79;105791;1284;72216;-90
2022/10/14 03:00:16;;;;;;;23.30;18.40;;;;;;;19.35;44.00;101176.84;105793;1283;81680;-91
2022/10/14 03:06:13;;;;;;;25.70;17.30;;;;;;;19.40;43.80;101175.58;105635;1284;69095;-90
2022/10/14 03:11:50;;;;;;;20.70;15.30;;;;;;;19.42;43.78;101166.23;105816;1283;71862;-91
2022/10/14 03:17:26;;;;;;;44.90;14.80;;;;;;;19.43;43.64;101172.27;105497;1284;71724;-91
2022/10/14 03:23:04;;;;;;;43.80;13.60;;;;;;;19.42;43.85;101166.95;105926;1283;69178;-90
2022/10/14 03:26:08;;;;;;;28.00;12.50;;;;;;;19.42;43.92;101169.90;105657;1284;73561;-91
2022/10/14 03:32:12;;;;;;;22.00;11.20;;;;;;;19.41;43.77;101163.62;106099;1283;72269;-90
2022/10/14 03:37:49;;;;;;;17.10;10.30;;;;;;;19.35;44.07;101158.78;105610;1284;69083;-91
2022/10/14 03:43:50;;;;;;;17.50;10.70;;;;;;;19.28;44.29;101163.09;105868;1283;82007;-90
2022/10/14 03:47:01;;;;;;;24.10;16.00;;;;;;;19.26;44.36;101165.14;105448;1284;535711;-91
2022/10/14 03:55:38;;;;;;;34.10;22.40;;;;;;;19.21;44.55;101154.69;107651;1284;73482;-89
2022/10/14 04:01:32;;;;;;;24.90;16.30;;;;;;;19.19;44.59;101156.14;107685;1283;72271;31
2022/10/14 04:10:34;;;;;;;21.30;12.40;;;;;;;19.21;44.63;101150.50;107774;1283;73164;31
2022/10/14 04:13:46;;;;;;;18.80;11.60;;;;;;;19.20;44.70;101150.50;107235;1283;555545;-92
2022/10/14 04:16:50;;;;;;;16.00;10.70;;;;;;;19.21;44.72;101146.73;107543;1283;72227;-91
2022/10/14 04:22:48;;;;;;;16.70;9.60;;;;;;;19.23;44.70;101151.20;107547;1284;66137;-90
2022/10/14 04:29:35;;;;;;;15.10;9.60;;;;;;;19.23;44.64;101145.65;107763;1283;81922;-91
2022/10/14 04:32:42;;;;;;;16.70;9.70;;;;;;;19.24;44.69;101144.80;107750;1283;71478;-92
2022/10/14 04:41:46;;;;;;;17.40;9.80;;;;;;;19.26;44.49;101143.92;107677;1283;73263;-92
2022/10/14 04:53:35;;;;;;;12.20;7.70;;;;;;;19.27;44.73;101144.17;107571;1284;66281;-92
2022/10/14 05:09:03;;;;;;;;;;;;;;;19.40;44.65;101145.42;107642;1283;66767;-90
2022/10/14 05:18:11;;;;;;;18.40;10.80;;;;;;;19.32;44.70;101143.92;107608;1283;72225;-92
2022/10/14 05:24:09;;;;;;;24.20;12.00;;;;;;;19.38;44.85;101140.85;107549;1284;66351;-90
2022/10/14 05:36:28;;;;;;;;;;;;;;;19.42;44.68;101141.54;107519;1287;65296;-90
2022/10/14 05:39:15;;;;;;;25.50;14.40;;;;;;;19.39;44.59;101150.97;107484;1284;66088;-90
2022/10/14 05:41:56;;;;;;;22.20;14.00;;;;;;;19.41;44.58;101148.66;107564;1286;66565;-93
2022/10/14 05:50:38;;;;;;;21.90;12.80;;;;;;;19.40;44.56;101157.27;107511;1284;67830;-91
2022/10/14 06:07:02;;;;;;;26.20;13.50;;;;;;;19.43;44.50;101151.60;107648;1284;66710;-92
2022/10/14 06:15:58;;;;;;;31.80;13.50;;;;;;;19.42;44.52;101166.73;107877;1283;81643;-91
2022/10/14 06:24:58;;;;;;;20.10;12.20;;;;;;;19.49;44.78;101162.95;107424;1284;65933;-93
2022/10/14 06:33:56;;;;;;;38.10;13.30;;;;;;;19.56;44.66;101166.02;107473;1284;72221;-91
2022/10/14 06:39:46;;;;;;;51.50;12.90;;;;;;;19.52;44.58;101158.63;107549;1283;66221;-93
2022/10/14 06:52:01;;;;;;;44.10;12.60;;;;;;;19.64;44.58;101169.73;107233;1284;66399;-87
2022/10/14 06:57:40;;;;;;;32.10;13.10;;;;;;;19.67;44.47;101167.84;107383;1286;72652;-92
2022/10/14 11:30:12;;;;;;;14.50;5.30;;;;;;;20.82;43.35;101093.59;107714;1283;73291;-92
2022/10/14 11:33:19;;;;;;;8.80;5.30;;;;;;;20.83;43.23;101091.95;107815;1283;81354;-92
2022/10/14 11:39:27;;;;;;;11.00;5.10;;;;;;;20.87;43.29;101078.35;107755;1283;67838;-92
2022/10/14 11:45:10;;;;;;;9.90;4.90;;;;;;;20.89;43.19;101067.42;107747;1283;73312;-93
2022/10/14 12:14:20;;;;;;;11.60;5.10;;;;;;;20.96;42.93;101046.66;107665;1283;66076;-92
2022/10/14 12:30:52;;;;;;;10.80;6.00;;;;;;;20.34;43.51;101032.35;107806;1283;66760;-92
2022/10/14 12:43:14;;;;;;;17.00;6.60;;;;;;;20.11;43.52;101025.44;107214;1284;509970;-92
2022/10/14 12:46:39;;;;;;;12.30;6.90;;;;;;;20.12;43.39;101027.91;107547;1284;66044;-92
2022/10/14 12:53:13;;;;;;;14.70;6.60;;;;;;;20.08;43.24;101017.65;107740;1283;80046;-92
2022/10/14 12:59:24;;;;;;;15.00;7.20;;;;;;;20.03;43.22;101015.42;107539;1284;67970;-92
2022/10/14 13:14:44;;;;;;;16.30;6.90;;;;;;;19.90;43.06;101016.13;107415;1285;66135;-92
2022/10/14 13:18:12;;;;;;;14.10;6.90;;;;;;;19.87;43.17;101016.59;107930;1284;66164;-91
2022/10/14 13:26:57;;;;;;;10.30;6.40;;;;;;;19.82;43.01;101021.63;107877;1283;72281;-91
2022/10/14 13:35:43;;;;;;;21.90;12.00;;;;;;;19.79;43.03;101021.01;107916;1282;71846;-92
2022/10/14 13:56:27;;;;;;;25.70;10.70;;;;;;;19.85;43.19;101013.33;107772;1283;71801;-91
2022/10/14 14:05:06;;;;;;;18.70;9.80;;;;;;;19.89;43.02;101017.39;107570;1284;72901;-92
2022/10/14 14:11:20;;;;;;;16.90;9.80;;;;;;;19.91;43.01;101022.98;107423;1284;71516;-93
2022/10/14 14:20:06;;;;;;;21.70;10.00;;;;;;;19.93;43.00;101031.64;107563;1284;72667;-93
2022/10/14 14:26:23;;;;;;;19.80;9.90;;;;;;;19.92;42.98;101034.80;107563;1284;71641;-93
2022/10/14 14:38:01;;;;;;;19.00;9.10;;;;;;;19.93;43.03;101040.68;107950;1283;80366;-92
2022/10/14 14:41:35;;;;;;;16.90;8.70;;;;;;;19.93;43.06;101038.44;107904;1283;71699;-92
2022/10/14 14:47:30;;;;;;;14.10;8.80;;;;;;;19.93;43.02;101040.79;107671;1284;66077;-92
2022/10/14 15:00:37;;;;;;;14.90;7.90;;;;;;;19.92;42.81;101041.54;107707;1283;66095;31
2022/10/14 15:07:11;;;;;;;16.10;8.20;;;;;;;19.91;42.84;101037.75;107781;1282;73609;-90
2022/10/14 15:15:54;;;;;;;13.20;7.60;;;;;;;19.91;42.80;101034.83;107801;1280;66869;-92
2022/10/14 15:24:40;;;;;;;13.20;7.40;;;;;;;19.92;42.89;101035.45;107804;1282;80198;-92
2022/10/14 15:33:54;;;;;;;13.20;7.40;;;;;;;19.92;42.78;101037.14;107809;1282;66742;-92
2022/10/14 15:42:51;;;;;;;11.60;7.40;;;;;;;19.91;42.76;101041.42;107695;1283;72144;-91
2022/10/14 16:02:01;;;;;;;17.30;7.10;;;;;;;19.90;42.71;101060.36;107776;1283;66253;-93
2022/10/14 16:11:06;;;;;;;;;;;;;;;19.91;42.72;101067.23;107582;1287;81319;-91
2022/10/14 16:17:42;;;;;;;15.10;6.80;;;;;;;19.90;42.80;101067.81;107666;1284;65314;-92
2022/10/14 16:23:15;;;;;;;22.10;7.10;;;;;;;19.90;42.85;101063.08;107594;1284;73419;-93
2022/10/14 16:28:54;;;;;;;20.70;7.60;;;;;;;19.91;42.86;101063.84;107637;1285;72182;-92
2022/10/14 16:32:03;;;;;;;17.50;7.20;;;;;;;19.91;42.83;101063.29;108051;1283;65539;-92
2022/10/14 16:38:01;;;;;;;14.90;7.10;;;;;;;19.91;42.91;101066.45;107657;1284;73255;-91
2022/10/14 16:43:48;;;;;;;22.40;7.10;;;;;;;19.92;42.82;101072.61;107511;1284;71933;-92
2022/10/14 16:58:50;;;;;;;15.30;7.00;;;;;;;19.92;42.92;101084.61;107436;1284;71987;-92
2022/10/14 17:07:42;;;;;;;16.10;6.60;;;;;;;19.92;42.89;101086.08;107528;1285;72740;-92
2022/10/14 17:10:50;;;;;;;14.50;6.70;;;;;;;19.93;42.84;101089.24;107732;1284;81513;-92
2022/10/14 17:16:42;;;;;;;14.90;6.80;;;;;;;19.93;42.86;101088.54;107861;1283;66423;-91
2022/10/14 17:22:25;;;;;;;14.50;7.40;;;;;;;19.93;42.83;101091.66;107870;1283;72610;-92
2022/10/14 17:28:03;;;;;;;13.10;7.00;;;;;;;19.93;42.83;101083.39;107870;1283;72256;-92
2022/10/14 17:33:53;;;;;;;16.20;6.70;;;;;;;19.93;42.74;101085.95;107613;1284;68283;-92
2022/10/14 17:39:52;;;;;;;15.70;7.20;;;;;;;19.93;42.91;101088.78;107656;1284;81170;-92
2022/10/14 17:48:29;;;;;;;19.00;7.00;;;;;;;19.93;42.88;101089.16;107830;1283;66324;-92
2022/10/14 18:00:32;;;;;;;12.70;7.20;;;;;;;19.92;42.86;101102.68;107728;1284;66095;-90
2022/10/14 18:06:34;;;;;;;14.20;7.20;;;;;;;19.93;42.88;101102.73;107882;1283;73574;-90
2022/10/14 18:12:36;;;;;;;13.90;7.40;;;;;;;19.92;42.96;101099.87;107665;1283;71946;-92
2022/10/14 18:18:12;;;;;;;12.80;7.40;;;;;;;19.92;42.95;101107.98;107755;1283;66807;-92
2022/10/14 18:21:26;;;;;;;13.60;7.20;;;;;;;19.92;42.89;101108.50;107782;1283;73104;-91
2022/10/14 18:27:26;;;;;;;11.50;7.00;;;;;;;19.92;43.01;101109.47;107712;1283;71052;-92
2022/10/14 18:33:08;;;;;;;13.80;6.80;;;;;;;19.91;42.99;101109.56;107855;1284;66798;-92
2022/10/14 18:39:07;;;;;;;14.10;7.40;;;;;;;19.92;43.02;101118.77;107786;1283;81810;-92
2022/10/14 18:45:01;;;;;;;13.90;7.50;;;;;;;19.92;42.94;101117.48;107502;1284;66681;-91
2022/10/14 18:53:30;;;;;;;11.90;7.20;;;;;;;19.91;43.00;101124.02;107883;1284;82028;-91
2022/10/14 19:01:56;;;;;;;11.50;7.10;;;;;;;19.92;42.86;101132.66;107675;1283;66938;-93
2022/10/14 19:07:50;;;;;;;15.30;6.90;;;;;;;19.91;42.91;101138.52;107652;1284;81731;-92
2022/10/14 19:13:27;;;;;;;14.00;6.60;;;;;;;19.91;42.87;101139.90;107694;1284;67482;-92
2022/10/14 19:19:22;;;;;;;12.20;6.60;;;;;;;19.91;42.98;101144.74;107655;1283;73419;-92
2022/10/14 19:24:59;;;;;;;12.20;6.40;;;;;;;19.90;42.94;101152.56;107759;1283;72233;-92
2022/10/14 19:30:42;;;;;;;10.30;6.20;;;;;;;19.91;42.84;101164.98;107774;1283;66846;-91
2022/10/14 19:36:24;;;;;;;10.80;5.60;;;;;;;19.91;42.78;101161.60;107753;1283;81951;-90
2022/10/14 19:42:11;;;;;;;8.20;5.50;;;;;;;19.90;42.63;101167.81;107689;1283;68107;-90
2022/10/14 19:47:53;;;;;;;9.70;5.60;;;;;;;19.90;42.65;101177.62;107888;1284;73270;-92
2022/10/14 19:51:02;;;;;;;12.30;5.30;;;;;;;19.90;42.56;101181.90;107761;1284;81811;-90
2022/10/14 19:54:06;;;;;;;10.70;5.10;;;;;;;19.89;42.57;101188.52;107679;1283;72109;-92
2022/10/14 19:57:09;;;;;;;8.60;5.00;;;;;;;19.89;42.47;101189.96;107719;1283;66274;-92
2022/10/14 20:03:02;;;;;;;8.70;5.00;;;;;;;19.88;42.31;101192.96;107763;1283;73189;-92
2022/10/14 20:08:44;;;;;;;8.80;4.90;;;;;;;19.88;42.26;101198.17;107672;1283;72549;-90
2022/10/14 20:14:30;;;;;;;7.90;4.60;;;;;;;19.88;42.15;101206.75;107664;1283;66717;-89
2022/10/14 20:23:24;;;;;;;8.40;4.50;;;;;;;19.88;42.08;101212.86;107731;1283;72029;31
2022/10/14 20:26:40;;;;;;;9.80;4.50;;;;;;;19.87;41.88;101214.59;107779;1283;66076;-90
2022/10/14 20:32:36;;;;;;;6.00;4.30;;;;;;;19.87;41.86;101216.27;107747;1283;73312;-90
2022/10/14 20:38:17;;;;;;;8.90;4.60;;;;;;;19.87;41.96;101221.27;107697;1284;72242;-90
2022/10/14 20:43:55;;;;;;;8.20;4.50;;;;;;;19.87;41.80;101218.61;107741;1283;66873;-91
2022/10/14 20:49:32;;;;;;;6.60;4.20;;;;;;;19.87;41.68;101217.75;107737;1283;81820;-93
2022/10/14 20:58:09;;;;;;;6.10;4.00;;;;;;;19.86;41.51;101216.00;107721;1283;66910;-92
2022/10/14 21:06:53;;;;;;;6.10;4.00;;;;;;;19.86;41.32;101215.23;107717;1284;72466;-92
2022/10/14 21:12:34;;;;;;;6.30;4.20;;;;;;;19.86;41.44;101211.85;107743;1283;66152;-92
2022/10/14 21:18:10;;;;;;;9.70;4.00;;;;;;;19.86;41.16;101209.14;107741;1283;82222;-92
2022/10/14 21:23:51;;;;;;;6.80;4.00;;;;;;;19.85;41.11;101203.30;107720;1283;66785;-92
2022/10/14 21:29:49;;;;;;;5.70;3.60;;;;;;;19.84;41.03;101194.67;107560;1284;73325;-92
2022/10/14 21:32:57;;;;;;;5.90;3.70;;;;;;;19.84;41.05;101190.52;107446;1284;81981;-91
2022/10/14 21:36:05;;;;;;;5.90;3.60;;;;;;;19.84;40.93;101188.44;107521;1284;72195;-92
2022/10/14 21:42:00;;;;;;;7.10;3.20;;;;;;;19.84;40.84;101189.55;107519;1284;67424;-92
2022/10/14 21:47:51;;;;;;;;;;;;;;;19.83;40.83;101195.56;107483;1284;81862;-93
2022/10/14 21:53:51;;;;;;;5.20;3.20;;;;;;;19.81;40.89;101196.86;107510;1284;66182;-91
2022/10/14 21:59:29;;;;;;;5.70;3.30;;;;;;;19.81;40.67;101202.23;107879;1284;73524;-92
2022/10/14 22:05:11;;;;;;;4.70;3.00;;;;;;;19.81;40.56;101198.70;107754;1283;72132;-90
2022/10/14 22:08:14;;;;;;;4.80;3.20;;;;;;;19.80;40.74;101202.73;107801;1282;66741;-92
2022/10/14 22:11:22;;;;;;;4.00;2.90;;;;;;;19.81;40.54;101204.41;107775;1283;66094;-92
2022/10/14 22:17:31;;;;;;;4.00;3.00;;;;;;;19.80;40.50;101207.16;107764;1283;81792;-92
2022/10/14 22:26:41;;;;;;;5.70;2.80;;;;;;;19.79;40.41;101203.06;107783;1283;68286;-92
2022/10/14 22:29:44;;;;;;;6.50;3.10;;;;;;;19.79;40.34;101204.69;107727;1283;73403;-92
2022/10/14 22:35:53;;;;;;;4.70;3.00;;;;;;;19.79;40.21;101200.60;107552;1283;71320;-92
2022/10/14 22:38:57;;;;;;;4.70;2.90;;;;;;;19.79;40.20;101197.80;107749;1283;66928;-91
2022/10/14 22:44:43;;;;;;;5.50;3.10;;;;;;;19.78;40.03;101200.29;107739;1283;73154;-92
2022/10/14 22:47:50;;;;;;;5.80;2.80;;;;;;;19.79;40.13;101199.77;107686;1282;81009;-90
2022/10/14 22:56:36;;;;;;;4.30;2.90;;;;;;;19.79;40.02;101208.30;107696;1283;66856;-92
2022/10/14 23:02:44;;;;;;;4.20;2.60;;;;;;;19.77;39.77;101207.32;107594;1283;81160;-92
2022/10/14 23:05:47;;;;;;;5.20;2.60;;;;;;;19.77;39.80;101210.63;107749;1282;72379;-91
2022/10/14 23:14:36;;;;;;;4.20;2.80;;;;;;;19.77;39.66;101209.75;107739;1283;72702;-92
2022/10/14 23:17:44;;;;;;;4.80;2.60;;;;;;;19.77;39.56;101207.75;107760;1283;81742;-90
2022/10/14 23:23:26;;;;;;;4.20;2.90;;;;;;;19.76;39.66;101208.98;103514;1283;5607413;-92
2022/10/14 23:26:33;;;;;;;4.50;3.00;;;;;;;19.76;39.55;101210.86;107673;1283;67845;-91
2022/10/14 23:32:29;;;;;;;6.00;2.60;;;;;;;19.76;39.42;101214.95;107789;1283;81494;-93
2022/10/14 23:38:14;;;;;;;5.10;2.70;;;;;;;19.75;39.41;101217.89;107707;1283;66193;-92
2022/10/14 23:44:11;;;;;;;5.70;2.60;;;;;;;19.74;39.43;101221.05;107761;1283;73412;-92
2022/10/14 23:50:30;;;;;;;5.60;3.00;;;;;;;19.74;39.32;101222.93;107720;1283;70868;-92
2022/10/14 23:56:28;;;;;;;4.30;2.70;;;;;;;19.74;39.32;101224.63;107452;1285;66174;-92
